createdAt,value
2022-08-16T00:00:21.966Z,9.0
2022-08-16T00:01:21.180Z,8.6
2022-08-16T00:02:22.765Z,9.7
2022-08-16T00:03:23.808Z,9.9
2022-08-16T00:04:24.377Z,8.9
2022-08-16T00:05:25.965Z,9.0
2022-08-16T00:06:26.578Z,8.7
2022-08-16T00:07:29.106Z,8.5
2022-08-16T00:08:30.663Z,8.8
2022-08-16T00:09:30.359Z,8.5
2022-08-16T00:10:31.320Z,9.2
2022-08-16T00:11:32.910Z,9.0
2022-08-16T00:12:33.506Z,9.3
2022-08-16T00:13:41.686Z,8.8
2022-08-16T00:14:36.343Z,8.3
2022-08-16T00:15:50.987Z,9.5
2022-08-16T00:17:00.930Z,8.3
2022-08-16T00:17:56.335Z,7.7
2022-08-16T00:18:41.863Z,8.4
2022-08-16T00:19:42.459Z,8.3
2022-08-16T00:20:43.055Z,8.7
2022-08-16T00:21:44.103Z,9.0
2022-08-16T00:22:45.212Z,8.7
2022-08-16T00:23:46.113Z,8.5
2022-08-16T00:24:47.140Z,8.5
2022-08-16T00:26:36.074Z,8.4
2022-08-16T00:26:49.065Z,9.0
2022-08-16T00:27:49.677Z,8.4
2022-08-16T00:28:54.707Z,8.5
2022-08-16T00:30:08.659Z,8.7
2022-08-16T00:30:53.454Z,8.7
2022-08-16T00:31:59.642Z,8.4
2022-08-16T00:32:57.011Z,8.7
2022-08-16T00:33:57.231Z,8.8
2022-08-16T00:34:57.830Z,8.4
2022-08-16T00:36:00.285Z,8.0
2022-08-16T00:37:00.879Z,7.6
2022-08-16T00:38:02.469Z,8.0
2022-08-16T00:39:04.058Z,8.2
2022-08-16T00:40:04.692Z,7.9
2022-08-16T00:41:06.246Z,8.7
2022-08-16T00:42:10.211Z,8.4
2022-08-16T00:43:12.339Z,8.0
2022-08-16T00:44:10.339Z,8.3
2022-08-16T00:45:11.786Z,7.2
2022-08-16T00:46:34.218Z,7.7
2022-08-16T00:47:14.001Z,7.3
2022-08-16T00:48:31.249Z,7.1
2022-08-16T00:49:18.725Z,8.5
2022-08-16T00:50:17.782Z,6.8
2022-08-16T00:51:18.391Z,7.1
2022-08-16T00:52:29.525Z,6.9
2022-08-16T00:53:20.580Z,7.1
2022-08-16T00:54:21.537Z,6.3
2022-08-16T00:55:22.047Z,7.7
2022-08-16T00:56:58.553Z,7.3
2022-08-16T00:57:24.355Z,6.6
2022-08-16T00:58:35.017Z,6.6
2022-08-16T00:59:26.554Z,6.3
2022-08-16T01:00:27.361Z,6.7
2022-08-16T01:01:28.803Z,5.9
2022-08-16T01:02:31.236Z,6.4
2022-08-16T01:03:34.983Z,6.1
2022-08-16T01:04:32.518Z,6.3
2022-08-16T01:05:33.826Z,6.0
2022-08-16T01:06:48.819Z,5.8
2022-08-16T01:07:51.009Z,5.3
2022-08-16T01:08:37.599Z,6.0
2022-08-16T01:09:39.188Z,5.0
2022-08-16T01:10:40.777Z,6.0
2022-08-16T01:11:54.134Z,5.9
2022-08-16T01:12:43.955Z,6.5
2022-08-16T01:13:44.900Z,6.2
2022-08-16T01:14:45.511Z,6.4
2022-08-16T01:15:47.101Z,6.7
2022-08-16T01:16:48.688Z,5.8
2022-08-16T01:17:56.051Z,6.4
2022-08-16T01:18:51.502Z,6.6
2022-08-16T01:19:52.098Z,7.1
2022-08-16T01:20:53.687Z,6.8
2022-08-16T01:21:54.286Z,6.7
2022-08-16T01:22:55.948Z,6.1
2022-08-16T01:24:00.847Z,6.2
2022-08-16T01:24:58.384Z,6.0
2022-08-16T01:26:00.123Z,6.4
2022-08-16T01:27:03.776Z,6.1
2022-08-16T01:28:02.159Z,6.7
2022-08-16T01:29:02.758Z,6.8
2022-08-16T01:30:04.347Z,6.4
2022-08-16T01:31:05.249Z,6.6
2022-08-16T01:32:05.844Z,6.5
2022-08-16T01:33:15.329Z,6.2
2022-08-16T01:34:09.023Z,6.7
2022-08-16T01:35:17.044Z,6.3
2022-08-16T01:36:13.122Z,6.6
2022-08-16T01:37:13.772Z,6.7
2022-08-16T01:38:19.600Z,6.7
2022-08-16T01:39:16.950Z,6.5
2022-08-16T01:40:17.734Z,6.4
2022-08-16T01:41:19.284Z,5.9
2022-08-16T01:42:20.181Z,5.6
2022-08-16T01:43:20.770Z,6.3
2022-08-16T01:44:22.361Z,5.5
2022-08-16T01:45:22.956Z,6.1
2022-08-16T01:46:37.642Z,5.7
2022-08-16T01:47:25.140Z,5.3
2022-08-16T01:48:27.571Z,5.3
2022-08-16T01:49:42.751Z,5.3
2022-08-16T01:50:42.937Z,5.6
2022-08-16T01:51:31.307Z,5.7
2022-08-16T01:52:32.567Z,5.3
2022-08-16T01:53:33.412Z,5.4
2022-08-16T01:54:34.113Z,5.8
2022-08-16T01:55:35.924Z,5.0
2022-08-16T01:56:37.292Z,5.3
2022-08-16T01:57:37.903Z,5.6
2022-08-16T01:58:38.483Z,5.2
2022-08-16T01:59:40.070Z,5.8
2022-08-16T02:00:41.661Z,5.8
2022-08-16T02:01:43.289Z,5.5
2022-08-16T02:02:44.840Z,5.8
2022-08-16T02:03:50.287Z,5.9
2022-08-16T02:04:49.779Z,5.8
2022-08-16T02:05:52.121Z,5.4
2022-08-16T02:06:50.218Z,5.4
2022-08-16T02:07:52.110Z,5.3
2022-08-16T02:08:53.343Z,5.5
2022-08-16T02:09:58.638Z,5.3
2022-08-16T02:10:55.888Z,5.9
2022-08-16T02:11:56.485Z,5.3
2022-08-16T02:13:00.765Z,5.4
2022-08-16T02:13:58.670Z,5.8
2022-08-16T02:14:59.415Z,6.1
2022-08-16T02:16:00.861Z,5.6
2022-08-16T02:17:02.445Z,5.7
2022-08-16T02:18:03.498Z,5.2
2022-08-16T02:19:04.095Z,5.9
2022-08-16T02:20:11.624Z,5.2
2022-08-16T02:21:07.274Z,5.0
2022-08-16T02:22:35.010Z,5.2
2022-08-16T02:23:09.641Z,5.2
2022-08-16T02:24:32.237Z,5.2
2022-08-16T02:25:11.828Z,4.7
2022-08-16T02:26:17.047Z,5.0
2022-08-16T02:27:14.029Z,5.2
2022-08-16T02:28:17.503Z,4.8
2022-08-16T02:29:17.045Z,4.8
2022-08-16T02:30:37.485Z,5.4
2022-08-16T02:31:20.224Z,4.7
2022-08-16T02:32:50.904Z,4.5
2022-08-16T02:33:24.531Z,4.9
2022-08-16T02:34:32.894Z,5.2
2022-08-16T02:35:26.582Z,4.7
2022-08-16T02:36:47.656Z,4.8
2022-08-16T02:37:51.379Z,4.8
2022-08-16T02:38:31.595Z,4.6
2022-08-16T02:39:32.840Z,4.5
2022-08-16T02:40:34.239Z,4.8
2022-08-16T02:41:37.263Z,4.6
2022-08-16T02:42:36.535Z,4.6
2022-08-16T02:43:38.123Z,4.7
2022-08-16T02:44:38.719Z,5.0
2022-08-16T02:45:40.309Z,5.0
2022-08-16T02:46:41.900Z,4.4
2022-08-16T02:48:01.629Z,4.9
2022-08-16T02:48:49.263Z,4.6
2022-08-16T02:49:59.105Z,4.7
2022-08-16T02:50:54.598Z,4.1
2022-08-16T02:51:50.141Z,4.4
2022-08-16T02:52:50.807Z,4.4
2022-08-16T02:53:51.402Z,4.5
2022-08-16T02:54:55.688Z,4.7
2022-08-16T02:55:54.581Z,4.5
2022-08-16T02:56:55.177Z,4.6
2022-08-16T02:57:56.767Z,4.4
2022-08-16T02:58:57.888Z,4.5
2022-08-16T02:59:59.481Z,4.1
2022-08-16T03:01:01.130Z,4.5
2022-08-16T03:02:01.726Z,4.1
2022-08-16T03:03:03.516Z,4.2
2022-08-16T03:04:28.740Z,4.3
2022-08-16T03:05:05.720Z,3.9
2022-08-16T03:06:39.061Z,4.5
2022-08-16T03:07:07.906Z,4.2
2022-08-16T03:08:50.267Z,4.7
2022-08-16T03:09:14.784Z,4.6
2022-08-16T03:10:12.692Z,4.4
2022-08-16T03:11:16.705Z,5.1
2022-08-16T03:12:16.672Z,4.2
2022-08-16T03:13:17.458Z,4.1
2022-08-16T03:14:21.187Z,4.2
2022-08-16T03:15:20.336Z,3.8
2022-08-16T03:16:38.834Z,4.1
2022-08-16T03:17:23.521Z,4.5
2022-08-16T03:18:34.491Z,3.9
2022-08-16T03:19:26.695Z,3.8
2022-08-16T03:20:32.465Z,3.8
2022-08-16T03:21:28.895Z,4.1
2022-08-16T03:22:30.486Z,4.4
2022-08-16T03:23:35.893Z,3.9
2022-08-16T03:24:32.673Z,3.9
2022-08-16T03:25:43.175Z,3.6
2022-08-16T03:26:34.861Z,4.0
2022-08-16T03:27:36.447Z,4.0
2022-08-16T03:28:37.290Z,4.1
2022-08-16T03:29:37.885Z,3.7
2022-08-16T03:30:39.479Z,3.8
2022-08-16T03:31:40.602Z,3.9
2022-08-16T03:32:41.788Z,4.3
2022-08-16T03:33:43.374Z,3.7
2022-08-16T03:34:44.965Z,4.0
2022-08-16T03:35:46.555Z,4.0
2022-08-16T03:36:48.142Z,3.6
2022-08-16T03:38:03.155Z,3.6
2022-08-16T03:38:49.434Z,4.1
2022-08-16T03:39:56.453Z,4.0
2022-08-16T03:40:51.602Z,3.8
2022-08-16T03:41:59.972Z,3.7
2022-08-16T03:43:00.297Z,3.9
2022-08-16T03:43:55.379Z,4.3
2022-08-16T03:45:03.935Z,3.6
2022-08-16T03:45:58.096Z,3.2
2022-08-16T03:46:59.150Z,4.0
2022-08-16T03:47:59.983Z,4.3
2022-08-16T03:49:00.539Z,3.8
2022-08-16T03:50:02.129Z,4.0
2022-08-16T03:51:03.618Z,9.3
2022-08-16T03:52:05.209Z,8.4
2022-08-16T03:53:06.060Z,6.0
2022-08-16T03:54:12.285Z,5.2
2022-08-16T03:55:10.478Z,4.1
2022-08-16T03:56:20.938Z,3.9
2022-08-16T03:57:15.737Z,4.2
2022-08-16T03:58:12.967Z,4.0
2022-08-16T03:59:13.960Z,3.8
2022-08-16T04:00:36.234Z,4.0
2022-08-16T04:01:16.231Z,4.4
2022-08-16T04:02:22.824Z,4.6
2022-08-16T04:03:18.526Z,4.7
2022-08-16T04:04:32.465Z,4.0
2022-08-16T04:05:20.900Z,4.5
2022-08-16T04:06:22.491Z,4.3
2022-08-16T04:07:23.089Z,4.4
2022-08-16T04:08:24.694Z,4.1
2022-08-16T04:09:26.276Z,4.3
2022-08-16T04:10:37.055Z,4.1
2022-08-16T04:11:28.470Z,4.7
2022-08-16T04:12:54.661Z,4.6
2022-08-16T04:13:59.994Z,4.7
2022-08-16T04:14:32.690Z,4.7
2022-08-16T04:15:33.859Z,4.6
2022-08-16T04:16:34.525Z,4.7
2022-08-16T04:17:35.293Z,4.7
2022-08-16T04:18:35.880Z,4.5
2022-08-16T04:19:36.481Z,4.5
2022-08-16T04:20:37.252Z,4.5
2022-08-16T04:21:45.970Z,4.6
2022-08-16T04:22:39.870Z,4.2
2022-08-16T04:23:40.444Z,4.3
2022-08-16T04:24:41.957Z,4.2
2022-08-16T04:25:43.548Z,4.6
2022-08-16T04:26:46.018Z,4.1
2022-08-16T04:27:55.710Z,4.1
2022-08-16T04:28:53.288Z,4.4
2022-08-16T04:29:48.943Z,4.2
2022-08-16T04:30:50.538Z,3.8
2022-08-16T04:31:56.440Z,4.1
2022-08-16T04:32:52.746Z,3.9
2022-08-16T04:33:54.337Z,4.2
2022-08-16T04:34:54.943Z,3.9
2022-08-16T04:35:56.537Z,3.8
2022-08-16T04:36:57.120Z,4.2
2022-08-16T04:37:57.732Z,4.3
2022-08-16T04:38:58.335Z,4.1
2022-08-16T04:39:59.958Z,3.9
2022-08-16T04:41:01.523Z,3.8
2022-08-16T04:42:10.923Z,4.6
2022-08-16T04:43:04.240Z,4.3
2022-08-16T04:44:33.186Z,5.2
2022-08-16T04:45:06.441Z,5.0
2022-08-16T04:46:07.053Z,4.7
2022-08-16T04:47:21.659Z,3.8
2022-08-16T04:48:10.246Z,4.6
2022-08-16T04:49:10.864Z,4.3
2022-08-16T04:50:11.807Z,4.4
2022-08-16T04:51:13.403Z,4.1
2022-08-16T04:52:33.186Z,4.2
2022-08-16T04:53:16.583Z,5.3
2022-08-16T04:54:18.154Z,4.1
2022-08-16T04:55:19.755Z,4.1
2022-08-16T04:56:20.351Z,3.8
2022-08-16T04:57:20.958Z,3.7
2022-08-16T04:58:45.871Z,4.2
2022-08-16T04:59:22.300Z,4.1
2022-08-16T05:00:31.215Z,4.6
2022-08-16T05:01:24.550Z,4.4
2022-08-16T05:02:41.666Z,4.0
2022-08-16T05:03:27.711Z,4.4
2022-08-16T05:04:29.950Z,4.1
2022-08-16T05:05:32.959Z,4.4
2022-08-16T05:06:42.246Z,4.2
2022-08-16T05:07:33.060Z,3.9
2022-08-16T05:08:34.653Z,4.3
2022-08-16T05:09:36.457Z,4.6
2022-08-16T05:10:36.930Z,4.8
2022-08-16T05:11:38.516Z,3.8
2022-08-16T05:12:39.647Z,3.8
2022-08-16T05:13:42.323Z,4.4
2022-08-16T05:14:45.269Z,3.9
2022-08-16T05:15:43.454Z,4.0
2022-08-16T05:16:44.393Z,4.7
2022-08-16T05:17:44.997Z,3.9
2022-08-16T05:18:46.596Z,4.3
2022-08-16T05:19:57.466Z,3.8
2022-08-16T05:21:01.189Z,4.6
2022-08-16T05:21:51.533Z,4.6
2022-08-16T05:22:53.055Z,3.8
2022-08-16T05:23:58.462Z,4.2
2022-08-16T05:24:55.393Z,4.5
2022-08-16T05:25:56.285Z,4.4
2022-08-16T05:26:56.881Z,4.6
2022-08-16T05:27:57.485Z,4.0
2022-08-16T05:28:58.300Z,4.0
2022-08-16T05:30:04.839Z,4.1
2022-08-16T05:31:01.096Z,4.4
2022-08-16T05:32:02.692Z,4.2
2022-08-16T05:33:03.295Z,4.5
2022-08-16T05:34:03.909Z,5.8
2022-08-16T05:35:04.906Z,5.8
2022-08-16T05:36:08.762Z,4.6
2022-08-16T05:37:08.093Z,4.2
2022-08-16T05:38:30.880Z,4.8
2022-08-16T05:39:10.290Z,4.5
2022-08-16T05:40:13.233Z,3.6
2022-08-16T05:41:13.882Z,3.7
2022-08-16T05:42:14.081Z,3.4
2022-08-16T05:43:15.676Z,4.1
2022-08-16T05:44:24.273Z,3.5
2022-08-16T05:45:21.431Z,3.6
2022-08-16T05:46:29.883Z,3.6
2022-08-16T05:47:21.059Z,3.6
2022-08-16T05:48:21.663Z,3.7
2022-08-16T05:49:23.417Z,3.3
2022-08-16T05:50:28.193Z,3.5
2022-08-16T05:51:35.287Z,3.5
2022-08-16T05:52:27.899Z,3.5
2022-08-16T05:53:27.815Z,3.2
2022-08-16T05:54:28.419Z,3.1
2022-08-16T05:55:29.989Z,2.8
2022-08-16T05:56:30.652Z,3.4
2022-08-16T05:57:35.486Z,3.1
2022-08-16T05:58:33.578Z,2.8
2022-08-16T05:59:34.119Z,3.0
2022-08-16T06:00:34.747Z,3.5
2022-08-16T06:01:38.261Z,2.4
2022-08-16T06:02:36.915Z,3.1
2022-08-16T06:03:37.518Z,2.7
2022-08-16T06:04:38.120Z,2.7
2022-08-16T06:05:41.403Z,3.0
2022-08-16T06:06:41.310Z,3.7
2022-08-16T06:07:42.908Z,3.2
2022-08-16T06:08:46.472Z,2.7
2022-08-16T06:09:45.101Z,2.4
2022-08-16T06:11:09.639Z,2.7
2022-08-16T06:11:47.433Z,2.9
2022-08-16T06:12:52.666Z,2.7
2022-08-16T06:13:50.093Z,3.2
2022-08-16T06:14:51.377Z,2.9
2022-08-16T06:15:52.009Z,2.9
2022-08-16T06:16:52.610Z,3.7
2022-08-16T06:17:54.205Z,3.6
2022-08-16T06:18:55.791Z,3.0
2022-08-16T06:19:56.394Z,3.2
2022-08-16T06:20:57.015Z,2.8
2022-08-16T06:21:58.608Z,3.0
2022-08-16T06:23:03.649Z,2.9
2022-08-16T06:24:01.496Z,3.1
2022-08-16T06:25:02.993Z,2.9
2022-08-16T06:26:07.680Z,3.5
2022-08-16T06:27:05.204Z,3.2
2022-08-16T06:28:08.759Z,2.9
2022-08-16T06:29:07.812Z,2.9
2022-08-16T06:30:08.427Z,2.8
2022-08-16T06:31:11.970Z,2.9
2022-08-16T06:32:10.629Z,2.8
2022-08-16T06:33:12.621Z,2.8
2022-08-16T06:34:53.188Z,2.9
2022-08-16T06:35:14.922Z,2.6
2022-08-16T06:36:15.523Z,2.9
2022-08-16T06:37:16.130Z,2.9
2022-08-16T06:38:31.935Z,2.8
2022-08-16T06:39:19.324Z,3.1
2022-08-16T06:40:19.981Z,3.4
2022-08-16T06:41:20.544Z,3.3
2022-08-16T06:42:22.137Z,3.4
2022-08-16T06:43:27.331Z,3.3
2022-08-16T06:44:25.327Z,2.7
2022-08-16T06:45:29.094Z,3.2
2022-08-16T06:46:31.666Z,3.2
2022-08-16T06:47:53.810Z,2.9
2022-08-16T06:48:33.184Z,3.0
2022-08-16T06:49:32.330Z,3.2
2022-08-16T06:50:32.931Z,3.0
2022-08-16T06:51:48.253Z,3.1
2022-08-16T06:53:00.615Z,3.0
2022-08-16T06:53:36.910Z,3.3
2022-08-16T06:54:37.211Z,3.2
2022-08-16T06:55:38.584Z,3.2
2022-08-16T06:56:38.837Z,2.7
2022-08-16T06:57:39.633Z,3.5
2022-08-16T06:58:40.829Z,2.9
2022-08-16T06:59:48.611Z,3.1
2022-08-16T07:00:43.274Z,3.7
2022-08-16T07:01:54.280Z,3.2
2022-08-16T07:02:51.340Z,3.5
2022-08-16T07:03:55.823Z,3.1
2022-08-16T07:04:47.628Z,3.0
2022-08-16T07:05:49.226Z,2.8
2022-08-16T07:06:49.827Z,2.5
2022-08-16T07:07:51.425Z,2.8
2022-08-16T07:08:53.021Z,3.1
2022-08-16T07:09:53.624Z,2.9
2022-08-16T07:10:54.226Z,3.1
2022-08-16T07:11:54.845Z,3.2
2022-08-16T07:13:03.398Z,3.4
2022-08-16T07:14:00.679Z,3.5
2022-08-16T07:15:00.024Z,2.9
2022-08-16T07:16:00.257Z,3.3
2022-08-16T07:17:00.876Z,3.5
2022-08-16T07:18:01.498Z,3.2
2022-08-16T07:19:02.885Z,3.3
2022-08-16T07:20:35.224Z,3.2
2022-08-16T07:21:05.160Z,3.5
2022-08-16T07:22:05.778Z,2.9
2022-08-16T07:23:13.211Z,3.1
2022-08-16T07:24:08.974Z,3.5
2022-08-16T07:25:10.026Z,3.7
2022-08-16T07:26:11.011Z,3.4
2022-08-16T07:27:12.464Z,3.8
2022-08-16T07:28:20.822Z,3.4
2022-08-16T07:29:14.764Z,3.4
2022-08-16T07:30:39.814Z,2.9
2022-08-16T07:31:16.962Z,3.3
2022-08-16T07:32:17.565Z,4.3
2022-08-16T07:33:53.308Z,4.1
2022-08-16T07:34:20.757Z,3.9
2022-08-16T07:35:22.354Z,3.9
2022-08-16T07:36:23.211Z,3.8
2022-08-16T07:37:23.806Z,3.3
2022-08-16T07:38:33.746Z,3.6
2022-08-16T07:39:31.684Z,3.7
2022-08-16T07:40:58.073Z,4.0
2022-08-16T07:41:30.059Z,3.9
2022-08-16T07:42:35.108Z,3.4
2022-08-16T07:43:32.263Z,3.2
2022-08-16T07:44:49.002Z,3.3
2022-08-16T07:45:34.463Z,3.4
2022-08-16T07:46:39.418Z,3.4
2022-08-16T07:47:36.665Z,3.0
2022-08-16T07:48:37.492Z,3.3
2022-08-16T07:49:38.097Z,3.7
2022-08-16T07:50:56.695Z,4.0
2022-08-16T07:51:41.293Z,3.6
2022-08-16T07:52:41.911Z,3.4
2022-08-16T07:53:43.775Z,3.4
2022-08-16T07:54:45.753Z,3.4
2022-08-16T07:55:48.102Z,3.3
2022-08-16T07:56:47.305Z,3.2
2022-08-16T07:57:59.906Z,3.2
2022-08-16T07:58:49.506Z,3.3
2022-08-16T07:59:51.104Z,3.6
2022-08-16T08:00:51.822Z,3.5
2022-08-16T08:01:53.042Z,3.2
2022-08-16T08:02:53.757Z,3.6
2022-08-16T08:03:55.302Z,2.9
2022-08-16T08:04:55.903Z,3.7
2022-08-16T08:05:56.509Z,3.2
2022-08-16T08:06:57.113Z,3.6
2022-08-16T08:07:57.753Z,3.6
2022-08-16T08:08:59.314Z,3.7
2022-08-16T08:09:59.940Z,3.3
2022-08-16T08:11:02.082Z,3.6
2022-08-16T08:12:05.336Z,3.5
2022-08-16T08:13:04.405Z,3.5
2022-08-16T08:14:06.611Z,3.6
2022-08-16T08:15:09.641Z,4.1
2022-08-16T08:16:08.220Z,3.7
2022-08-16T08:17:09.816Z,3.6
2022-08-16T08:18:29.103Z,3.7
2022-08-16T08:19:11.063Z,4.0
2022-08-16T08:20:11.804Z,4.5
2022-08-16T08:21:12.403Z,6.9
2022-08-16T08:22:19.389Z,4.4
2022-08-16T08:23:14.621Z,5.2
2022-08-16T08:24:15.437Z,4.0
2022-08-16T08:25:16.209Z,4.9
2022-08-16T08:26:17.611Z,4.3
2022-08-16T08:27:23.037Z,3.8
2022-08-16T08:28:19.983Z,4.3
2022-08-16T08:29:22.826Z,5.3
2022-08-16T08:30:52.171Z,5.3
2022-08-16T08:31:22.839Z,4.5
2022-08-16T08:32:58.094Z,4.7
2022-08-16T08:33:25.040Z,4.5
2022-08-16T08:34:26.639Z,4.2
2022-08-16T08:35:27.239Z,4.2
2022-08-16T08:36:33.587Z,3.5
2022-08-16T08:37:54.143Z,3.7
2022-08-16T08:38:44.902Z,3.9
2022-08-16T08:39:32.702Z,3.8
2022-08-16T08:40:33.499Z,3.6
2022-08-16T08:41:34.083Z,4.4
2022-08-16T08:42:35.027Z,4.5
2022-08-16T08:43:36.372Z,3.8
2022-08-16T08:44:37.224Z,3.7
2022-08-16T08:45:46.867Z,3.5
2022-08-16T08:46:39.695Z,3.3
2022-08-16T08:47:41.295Z,3.4
2022-08-16T08:48:43.924Z,3.4
2022-08-16T08:49:46.370Z,3.4
2022-08-16T08:50:50.113Z,3.5
2022-08-16T08:51:45.761Z,4.1
2022-08-16T08:52:47.359Z,3.6
2022-08-16T08:53:57.214Z,4.0
2022-08-16T08:54:50.569Z,4.0
2022-08-16T08:55:59.132Z,4.2
2022-08-16T08:56:52.749Z,4.2
2022-08-16T08:57:53.357Z,4.4
2022-08-16T08:58:58.086Z,3.6
2022-08-16T08:59:55.877Z,3.9
2022-08-16T09:00:57.312Z,4.6
2022-08-16T09:01:58.909Z,4.0
2022-08-16T09:02:59.552Z,3.9
2022-08-16T09:04:01.204Z,4.1
2022-08-16T09:05:01.792Z,4.1
2022-08-16T09:06:03.391Z,3.7
2022-08-16T09:07:04.042Z,3.6
2022-08-16T09:08:05.881Z,4.4
2022-08-16T09:09:06.592Z,4.1
2022-08-16T09:10:20.910Z,3.4
2022-08-16T09:11:08.793Z,3.8
2022-08-16T09:12:09.410Z,3.6
2022-08-16T09:13:11.009Z,4.1
2022-08-16T09:14:24.009Z,3.7
2022-08-16T09:15:13.593Z,4.0
2022-08-16T09:16:14.374Z,4.1
2022-08-16T09:17:38.337Z,4.1
2022-08-16T09:18:26.977Z,3.6
2022-08-16T09:19:19.168Z,3.2
2022-08-16T09:20:20.766Z,3.8
2022-08-16T09:21:22.361Z,3.6
2022-08-16T09:22:23.958Z,3.7
2022-08-16T09:23:24.563Z,4.2
2022-08-16T09:24:52.995Z,4.6
2022-08-16T09:25:34.299Z,4.3
2022-08-16T09:26:45.785Z,4.1
2022-08-16T09:27:28.978Z,4.0
2022-08-16T09:29:06.657Z,4.0
2022-08-16T09:29:45.435Z,3.9
2022-08-16T09:30:43.324Z,4.9
2022-08-16T09:31:34.389Z,4.8
2022-08-16T09:32:35.985Z,3.8
2022-08-16T09:33:37.469Z,3.8
2022-08-16T09:34:38.659Z,4.6
2022-08-16T09:35:39.533Z,3.9
2022-08-16T09:36:46.142Z,4.0
2022-08-16T09:37:42.650Z,3.9
2022-08-16T09:38:43.251Z,3.7
2022-08-16T09:39:48.261Z,3.9
2022-08-16T09:40:45.570Z,4.2
2022-08-16T09:41:53.750Z,4.3
2022-08-16T09:42:58.868Z,3.8
2022-08-16T09:43:58.137Z,3.8
2022-08-16T09:45:09.495Z,4.3
2022-08-16T09:45:51.593Z,4.3
2022-08-16T09:46:57.476Z,3.9
2022-08-16T09:47:56.425Z,3.7
2022-08-16T09:48:56.673Z,4.1
2022-08-16T09:49:57.255Z,4.8
2022-08-16T09:50:57.874Z,4.7
2022-08-16T09:51:58.479Z,4.2
2022-08-16T09:52:59.083Z,4.1
2022-08-16T09:53:59.966Z,4.0
2022-08-16T09:55:00.571Z,3.7
2022-08-16T09:56:01.195Z,4.1
2022-08-16T09:57:01.800Z,4.4
2022-08-16T09:58:03.400Z,4.1
2022-08-16T09:59:07.782Z,3.4
2022-08-16T10:00:05.614Z,3.9
2022-08-16T10:01:06.242Z,4.2
2022-08-16T10:02:26.524Z,3.7
2022-08-16T10:03:09.064Z,4.5
2022-08-16T10:04:23.915Z,3.4
2022-08-16T10:05:11.689Z,4.0
2022-08-16T10:06:12.455Z,3.7
2022-08-16T10:07:15.924Z,3.5
2022-08-16T10:08:25.755Z,3.9
2022-08-16T10:09:16.257Z,4.4
2022-08-16T10:10:19.087Z,3.8
2022-08-16T10:11:23.901Z,4.4
2022-08-16T10:12:20.407Z,4.4
2022-08-16T10:13:21.026Z,3.8
2022-08-16T10:14:32.808Z,7.7
2022-08-16T10:15:23.334Z,12.4
2022-08-16T10:16:23.940Z,5.2
2022-08-16T10:17:24.628Z,4.1
2022-08-16T10:19:00.180Z,4.1
2022-08-16T10:19:26.834Z,3.7
2022-08-16T10:20:27.379Z,4.8
2022-08-16T10:21:29.089Z,6.9
2022-08-16T10:22:30.215Z,6.0
2022-08-16T10:23:31.684Z,3.1
2022-08-16T10:24:32.658Z,3.3
2022-08-16T10:27:19.833Z,3.2
2022-08-16T10:27:20.709Z,3.3
2022-08-16T10:27:46.960Z,3.5
2022-08-16T10:28:40.297Z,3.4
2022-08-16T10:30:00.028Z,3.2
2022-08-16T10:30:40.274Z,3.4
2022-08-16T10:31:46.015Z,3.6
2022-08-16T10:32:42.475Z,4.0
2022-08-16T10:33:43.094Z,3.2
2022-08-16T10:34:43.720Z,3.0
2022-08-16T10:35:46.416Z,3.2
2022-08-16T10:36:46.915Z,3.3
2022-08-16T10:37:48.620Z,3.7
2022-08-16T10:38:50.110Z,2.9
2022-08-16T10:39:51.765Z,2.8
2022-08-16T10:40:53.305Z,3.7
2022-08-16T10:41:53.923Z,3.5
2022-08-16T10:42:54.531Z,3.5
2022-08-16T10:43:55.153Z,4.0
2022-08-16T10:44:55.759Z,3.7
2022-08-16T10:46:00.608Z,4.0
2022-08-16T10:46:57.961Z,4.2
2022-08-16T10:48:00.479Z,4.3
2022-08-16T10:49:00.890Z,3.7
2022-08-16T10:50:01.690Z,3.5
2022-08-16T10:51:02.296Z,3.3
2022-08-16T10:52:18.704Z,4.1
2022-08-16T10:53:05.925Z,3.7
2022-08-16T10:54:07.087Z,4.1
2022-08-16T10:56:55.726Z,2.7
2022-08-16T10:57:12.132Z,3.3
2022-08-16T10:58:12.500Z,3.4
2022-08-16T10:59:32.801Z,3.6
2022-08-16T11:00:21.209Z,4.3
2022-08-16T11:01:42.977Z,3.4
2022-08-16T11:02:57.880Z,3.8
2022-08-16T11:05:05.548Z,4.0
2022-08-16T11:05:23.242Z,3.5
2022-08-16T11:06:26.953Z,3.2
2022-08-16T11:07:55.635Z,3.7
2022-08-16T11:08:35.798Z,3.1
2022-08-16T11:09:29.273Z,3.2
2022-08-16T11:11:31.964Z,3.8
2022-08-16T11:12:32.566Z,2.9
2022-08-16T11:14:34.766Z,3.7
2022-08-16T11:15:35.375Z,3.4
2022-08-16T11:17:37.593Z,2.9
2022-08-16T11:19:03.205Z,3.2
2022-08-16T11:20:48.618Z,3.1
2022-08-16T11:22:48.556Z,2.9
2022-08-16T11:23:57.976Z,3.0
2022-08-16T11:25:11.480Z,3.3
2022-08-16T11:26:23.359Z,2.5
2022-08-16T11:27:18.613Z,3.1
2022-08-16T11:27:52.587Z,3.6
2022-08-16T11:29:56.097Z,3.5
2022-08-16T11:30:57.367Z,3.0
2022-08-16T11:31:58.194Z,2.6
2022-08-16T11:32:58.797Z,3.1
2022-08-16T11:33:59.666Z,3.1
2022-08-16T11:35:14.036Z,3.5
2022-08-16T11:37:03.463Z,2.9
2022-08-16T11:38:05.851Z,3.4
2022-08-16T11:39:06.696Z,3.0
2022-08-16T11:40:07.360Z,3.2
2022-08-16T11:41:08.878Z,3.2
2022-08-16T11:42:28.589Z,2.6
2022-08-16T11:43:11.675Z,3.1
2022-08-16T11:44:13.637Z,3.4
2022-08-16T11:45:13.874Z,3.1
2022-08-16T11:46:43.592Z,3.7
2022-08-16T11:47:16.681Z,3.7
2022-08-16T11:48:17.287Z,3.4
2022-08-16T11:49:17.892Z,3.1
2022-08-16T11:50:18.497Z,3.4
2022-08-16T11:51:19.100Z,3.3
2022-08-16T11:52:21.699Z,3.4
2022-08-16T11:53:21.895Z,3.4
2022-08-16T11:54:25.063Z,2.5
2022-08-16T11:55:24.224Z,3.1
2022-08-16T11:56:39.685Z,2.9
2022-08-16T11:57:26.511Z,2.9
2022-08-16T11:58:28.174Z,2.9
2022-08-16T11:59:29.150Z,2.8
2022-08-16T12:00:50.047Z,2.7
2022-08-16T12:01:55.141Z,3.2
2022-08-16T12:02:33.270Z,2.6
2022-08-16T12:03:35.318Z,3.0
2022-08-16T12:04:35.521Z,2.8
2022-08-16T12:05:36.069Z,2.8
2022-08-16T12:06:36.676Z,2.9
2022-08-16T12:07:37.854Z,3.0
2022-08-16T12:08:39.327Z,2.8
2022-08-16T12:09:43.317Z,3.3
2022-08-16T12:10:43.209Z,3.0
2022-08-16T12:11:43.784Z,3.0
2022-08-16T12:12:44.751Z,3.0
2022-08-16T12:13:46.349Z,2.9
2022-08-16T12:14:47.948Z,2.7
2022-08-16T12:15:48.572Z,2.4
2022-08-16T12:16:55.695Z,2.6
2022-08-16T12:17:50.814Z,2.4
2022-08-16T12:18:52.044Z,2.8
2022-08-16T12:19:52.636Z,2.7
2022-08-16T12:20:55.138Z,2.1
2022-08-16T12:21:59.396Z,2.9
2022-08-16T12:22:56.439Z,2.4
2022-08-16T12:23:58.036Z,2.7
2022-08-16T12:24:59.208Z,2.5
2022-08-16T12:25:59.880Z,2.4
2022-08-16T12:27:00.493Z,2.1
2022-08-16T12:28:02.867Z,2.3
2022-08-16T12:29:02.819Z,2.3
2022-08-16T12:30:03.425Z,2.6
2022-08-16T12:31:05.022Z,2.8
2022-08-16T12:32:35.921Z,2.7
2022-08-16T12:33:07.789Z,2.9
2022-08-16T12:34:08.643Z,2.6
2022-08-16T12:35:09.270Z,2.0
2022-08-16T12:36:09.990Z,2.2
2022-08-16T12:37:11.678Z,2.2
2022-08-16T12:38:38.673Z,2.5
2022-08-16T12:39:13.669Z,2.4
2022-08-16T12:40:23.110Z,2.5
2022-08-16T12:41:15.872Z,2.5
2022-08-16T12:42:17.471Z,2.4
2022-08-16T12:43:18.077Z,2.4
2022-08-16T12:44:20.069Z,2.1
2022-08-16T12:45:20.716Z,2.3
2022-08-16T12:46:21.319Z,2.5
2022-08-16T12:47:22.540Z,2.6
2022-08-16T12:48:32.648Z,3.0
2022-08-16T12:49:25.102Z,2.9
2022-08-16T12:50:25.708Z,2.3
2022-08-16T12:51:26.340Z,2.7
2022-08-16T12:52:33.765Z,2.8
2022-08-16T12:53:32.107Z,2.5
2022-08-16T12:54:30.162Z,2.0
2022-08-16T12:55:33.656Z,2.3
2022-08-16T12:56:32.367Z,2.4
2022-08-16T12:57:36.533Z,2.4
2022-08-16T12:58:49.160Z,2.7
2022-08-16T12:59:38.519Z,2.6
2022-08-16T13:00:38.313Z,2.3
2022-08-16T13:01:39.839Z,2.3
2022-08-16T13:02:40.617Z,2.3
2022-08-16T13:03:41.516Z,2.4
2022-08-16T13:04:42.113Z,2.2
2022-08-16T13:05:53.223Z,2.0
2022-08-16T13:06:45.312Z,2.4
2022-08-16T13:07:51.273Z,2.3
2022-08-16T13:08:47.537Z,2.0
2022-08-16T13:09:48.164Z,2.6
2022-08-16T13:10:48.769Z,2.1
2022-08-16T13:11:57.184Z,2.5
2022-08-16T13:12:51.970Z,2.3
2022-08-16T13:13:53.480Z,2.8
2022-08-16T13:14:54.173Z,2.3
2022-08-16T13:15:58.423Z,2.6
2022-08-16T13:16:56.379Z,2.4
2022-08-16T13:17:57.976Z,2.1
2022-08-16T13:18:59.574Z,2.3
2022-08-16T13:20:09.062Z,2.7
2022-08-16T13:21:01.777Z,2.7
2022-08-16T13:22:03.378Z,2.7
2022-08-16T13:23:04.003Z,2.5
2022-08-16T13:24:04.611Z,2.3
2022-08-16T13:25:06.309Z,2.5
2022-08-16T13:26:07.017Z,2.7
2022-08-16T13:27:08.487Z,2.2
2022-08-16T13:28:09.211Z,2.5
2022-08-16T13:29:09.833Z,2.4
2022-08-16T13:30:21.800Z,2.2
2022-08-16T13:31:12.037Z,2.6
2022-08-16T13:32:40.477Z,2.5
2022-08-16T13:33:18.263Z,2.7
2022-08-16T13:34:18.380Z,2.7
2022-08-16T13:35:18.433Z,2.7
2022-08-16T13:36:48.091Z,2.4
2022-08-16T13:37:21.631Z,2.3
2022-08-16T13:38:25.100Z,2.3
2022-08-16T13:39:23.109Z,2.3
2022-08-16T13:40:24.659Z,2.2
2022-08-16T13:41:25.264Z,2.9
2022-08-16T13:42:26.863Z,2.9
2022-08-16T13:43:27.494Z,2.7
2022-08-16T13:44:36.028Z,2.4
2022-08-16T13:45:36.211Z,2.5
2022-08-16T13:46:32.292Z,2.8
2022-08-16T13:47:32.893Z,2.6
2022-08-16T13:48:43.019Z,2.4
2022-08-16T13:49:35.685Z,2.2
2022-08-16T13:50:51.364Z,2.6
2022-08-16T13:51:39.230Z,2.5
2022-08-16T13:52:39.894Z,2.9
2022-08-16T13:53:41.099Z,2.3
2022-08-16T13:54:41.704Z,2.8
2022-08-16T13:55:42.308Z,2.8
2022-08-16T13:56:42.933Z,3.0
2022-08-16T13:58:35.411Z,2.8
2022-08-16T13:58:53.934Z,2.6
2022-08-16T13:59:45.755Z,2.6
2022-08-16T14:00:46.374Z,3.0
2022-08-16T14:01:46.993Z,2.8
2022-08-16T14:02:48.930Z,2.8
2022-08-16T14:03:49.578Z,2.6
2022-08-16T14:05:03.019Z,3.0
2022-08-16T14:05:52.783Z,2.4
2022-08-16T14:06:53.401Z,2.2
2022-08-16T14:07:54.020Z,2.6
2022-08-16T14:08:59.097Z,2.2
2022-08-16T14:09:55.472Z,2.6
2022-08-16T14:10:56.739Z,2.7
2022-08-16T14:11:57.529Z,2.6